• Join FlightAware (Why Join?)
  • Login
  • US Flag 
05:42PM EDT


 

Airport Tracker/Info


-or-


 

Live Flight TrackerFlight Track Log ✈ DAL6035 ✈ 04-May-2013 ✈ KDTW - KLEX

Flight Track Log - Related Links

Times and Time Zones

All times are in EDT time to prevent confusion due to time zone crossing. See the DAL6035 flight status page for this flight to view local times or setup timezone preferences in your user account.

Time Position Orientation Groundspeed Altitude Reporting Facility
EDT Latitude Longitude Course Direction KTS MPH feet Rate Location/Type
08:15PM 42.2292 -83.3342 180° South 157 181 1,200  Level Cleveland Center
08:16PM 42.2703 -83.2686 50° Northeast 244 281 3,500 2,160 Climbing Cleveland Center
08:17PM 42.2803 -83.1989 79° East 242 278 5,900 2,460 Climbing Cleveland Center
08:18PM 41.8151 -83.4799 180° South  Level Estimated
08:18PM 42.2400 -83.1439 135° Southeast 260 299 8,300  Level Cleveland Center
08:19PM 41.7158 -83.5113 180° South  Level Estimated
08:19PM 42.1628 -83.1381 177° South 281 323 10,700  Level Cleveland Center
08:20PM 41.6164 -83.5426 180° South  Level Estimated
08:20PM 42.0786 -83.1736 197° South 295 339 11,800  Level Cleveland Center
08:21PM 41.9733 -83.2197 198° South 339 390 13,200 1,440 Climbing Cleveland Center
08:22PM 41.8911 -83.2639 202° Southwest 365 420 14,700 1,380 Climbing Cleveland Center
08:23PM 41.7939 -83.3128 201° Southwest 370 426 16,000 1,260 Climbing Cleveland Center
08:24PM 41.6950 -83.3586 199° South 375 432 17,300 1,140 Climbing Cleveland Center
08:25PM 41.5978 -83.4100 202° Southwest 375 432 18,300 1,020 Climbing Cleveland Center
08:26PM 41.4944 -83.4581 199° South 380 437 19,400 1,140 Climbing Cleveland Center
08:27PM 41.3889 -83.5114 201° Southwest 393 452 20,600 1,200 Climbing Cleveland Center
08:28PM 41.2853 -83.5622 200° South 393 452 21,800 1,140 Climbing Cleveland Center
08:30PM 41.0728 -83.6636 200° South 408 470 23,900 720 Climbing Indianapolis Center
08:31PM 40.9647 -83.7194 201° Southwest 413 475 24,000  Climbing Indianapolis Center
08:32PM 40.8489 -83.7750 200° South 432 497 24,000  Level Indianapolis Center
08:33PM 40.7344 -83.8311 200° South 436 502 24,000  Level Indianapolis Center
08:34PM 40.6214 -83.8850 200° South 430 495 24,000 -60 Level Indianapolis Center
08:35PM 40.5072 -83.9400 200° South 433 498 23,900  Descending Indianapolis Center
08:36PM 40.3953 -83.9933 200° South 429 494 24,000  Climbing Indianapolis Center
08:37PM 40.2858 -84.0447 200° South 419 482 24,000  Level Indianapolis Center
08:38PM 40.1742 -84.1031 202° Southwest 428 493 24,000  Level Indianapolis Center
08:39PM 40.0608 -84.1633 202° Southwest 437 503 24,000  Level Indianapolis Center
08:40PM 39.9458 -84.2231 202° Southwest 441 507 24,000 -180 Level Indianapolis Center
08:41PM 39.8308 -84.2825 202° Southwest 444 511 23,700 -720 Descending Indianapolis Center
08:42PM 39.7167 -84.3428 202° Southwest 442 509 22,600 -1,080 Descending Indianapolis Center
08:43PM 39.6039 -84.4011 202° Southwest 436 502 21,600 -1,140 Descending Indianapolis Center
08:44PM 39.4803 -84.4642 201° Southwest 411 473 20,300 -960 Descending Indianapolis Center
08:45PM 39.3772 -84.5192 202° Southwest 400 460 19,700 -1,560 Descending Indianapolis Center
08:46PM 39.2753 -84.5717 202° Southwest 392 451 17,200 -2,400 Descending Indianapolis Center
08:47PM 39.1783 -84.6214 202° Southwest 375 432 14,900 -1,920 Descending Indianapolis Center
08:47PM 39.1500 -84.6333 198° South 358 412 14,600 -660 Descending Cincinnati TRACON
08:48PM 39.0500 -84.6833 201° Southwest 368 423 14,000 -540 Descending Cincinnati TRACON
08:49PM 38.9500 -84.6833 180° South 348 400 13,600 -600 Descending Cincinnati TRACON
08:50PM 38.8667 -84.6667 171° South 341 392 12,900 -720 Descending Cincinnati TRACON
08:51PM 38.8108 -84.6583 173° South 343 395 12,400 -900 Descending Indianapolis Center
08:52PM 38.7186 -84.6392 171° South 337 388 11,400 -960 Descending Indianapolis Center
08:53PM 38.6261 -84.6194 171° South 316 364 10,500 -720 Descending Indianapolis Center
08:54PM 38.5461 -84.6183 179° South 289 333 10,000 -300 Descending Indianapolis Center
08:55PM 38.4447 -84.6586 197° South 345 397 10,000  Level Indianapolis Center
08:56PM 38.3650 -84.7056 205° Southwest 322 371 10,000 -960 Level Indianapolis Center
08:57PM 38.2997 -84.7450 205° Southwest 267 307 8,100 -1,860 Descending Indianapolis Center
08:58PM 38.2325 -84.7844 205° Southwest 266 306 6,300 -1,800 Descending Indianapolis Center
08:59PM 38.1672 -84.7889 183° South 246 283 4,500 -1,680 Descending Indianapolis Center
09:00PM 38.1033 -84.7928 183° South 232 267 3,000 -1,020 Descending Indianapolis Center
09:01PM 38.0406 -84.7944 181° South 230 265 2,500 -300 Descending Indianapolis Center
09:02PM 37.9983 -84.7664 152° Southeast 211 243 2,500 -180 Level Indianapolis Center
09:03PM 37.9897 -84.7083 101° East 181 208 2,200 -240 Descending Indianapolis Center
09:04PM 37.9956 -84.6592 81° East 159 183 2,100 -360 Descending Indianapolis Center
09:05PM 38.0156 -84.6272 52° Northeast 137 158 1,500 -600 Descending Indianapolis Center